createdAt,value
2019-04-14T00:00:38.313Z,10.43
2019-04-14T00:03:10.831Z,9.80
2019-04-14T00:05:42.958Z,9.25
2019-04-14T00:08:15.295Z,9.85
2019-04-14T00:10:50.701Z,9.75
2019-04-14T00:13:21.762Z,9.65
2019-04-14T00:15:53.797Z,9.98
2019-04-14T00:18:25.141Z,10.38
2019-04-14T00:20:55.890Z,11.03
2019-04-14T00:23:26.624Z,10.23
2019-04-14T00:25:58.682Z,10.38
2019-04-14T00:28:29.463Z,10.23
2019-04-14T00:31:00.262Z,10.90
2019-04-14T00:33:32.328Z,10.08
2019-04-14T00:36:04.681Z,10.63
2019-04-14T00:38:36.991Z,10.03
2019-04-14T00:41:09.402Z,10.48
2019-04-14T00:43:48.489Z,9.93
2019-04-14T00:46:37.039Z,9.70
2019-04-14T00:49:09.196Z,9.90
2019-04-14T00:51:41.234Z,9.15
2019-04-14T00:54:13.228Z,8.98
2019-04-14T00:56:43.991Z,9.18
2019-04-14T00:59:15.652Z,9.75
2019-04-14T01:01:46.587Z,9.85
2019-04-14T01:04:17.278Z,9.20
2019-04-14T01:06:48.937Z,9.08
2019-04-14T01:09:20.154Z,8.90
2019-04-14T01:11:53.077Z,9.15
2019-04-14T01:14:25.474Z,9.63
2019-04-14T01:16:56.337Z,9.03
2019-04-14T01:19:27.060Z,9.25
2019-04-14T01:21:58.790Z,9.15
2019-04-14T01:24:29.768Z,8.93
2019-04-14T01:27:01.615Z,8.13
2019-04-14T01:29:34.040Z,9.10
2019-04-14T01:32:04.925Z,8.35
2019-04-14T01:34:36.911Z,8.65
2019-04-14T01:37:07.778Z,7.87
2019-04-14T01:39:39.276Z,8.75
2019-04-14T01:42:11.567Z,8.75
2019-04-14T01:44:42.475Z,9.15
2019-04-14T01:47:13.764Z,8.58
2019-04-14T01:49:44.691Z,9.08
2019-04-14T01:52:20.992Z,8.90
2019-04-14T01:55:00.424Z,9.10
2019-04-14T01:57:48.255Z,8.88
2019-04-14T02:00:38.664Z,8.95
2019-04-14T02:03:10.565Z,8.53
2019-04-14T02:05:43.069Z,8.60
2019-04-14T02:08:15.493Z,8.73
2019-04-14T02:10:47.847Z,8.65
2019-04-14T02:13:18.535Z,8.93
2019-04-14T02:15:49.188Z,9.00
2019-04-14T02:18:20.907Z,9.25
2019-04-14T02:20:51.744Z,9.10
2019-04-14T02:23:23.526Z,9.30
2019-04-14T02:25:55.657Z,8.88
2019-04-14T02:28:26.545Z,8.85
2019-04-14T02:31:10.275Z,9.58
2019-04-14T02:33:50.442Z,9.35
2019-04-14T02:36:32.590Z,8.88
2019-04-14T02:46:46.819Z,9.75
2019-04-14T02:49:02.219Z,9.78
2019-04-14T02:51:40.010Z,10.03
2019-04-14T02:54:15.429Z,9.28
2019-04-14T02:56:46.721Z,8.60
2019-04-14T02:59:13.216Z,10.28
2019-04-14T03:04:21.713Z,9.38
2019-04-14T03:06:55.059Z,9.50
2019-04-14T03:12:00.837Z,10.20
2019-04-14T03:14:40.230Z,9.80
2019-04-14T03:17:25.114Z,9.78
2019-04-14T03:19:48.061Z,10.35
2019-04-14T03:22:32.611Z,10.10
2019-04-14T03:24:50.375Z,10.25
2019-04-14T03:27:45.720Z,9.38
2019-04-14T03:30:46.327Z,9.55
2019-04-14T03:33:21.227Z,9.70
2019-04-14T03:35:51.937Z,9.20
2019-04-14T03:43:14.901Z,8.43
2019-04-14T03:45:55.211Z,7.92
2019-04-14T03:48:33.863Z,8.13
2019-04-14T03:50:37.393Z,7.47
2019-04-14T03:55:45.273Z,7.50
2019-04-14T03:58:13.517Z,7.80
2019-04-14T04:00:44.321Z,7.30
2019-04-14T04:03:15.715Z,7.10
2019-04-14T04:05:46.408Z,7.10
2019-04-14T04:08:17.997Z,7.00
2019-04-14T04:10:51.095Z,6.58
2019-04-14T04:13:23.747Z,7.03
2019-04-14T04:15:56.250Z,6.33
2019-04-14T04:18:28.781Z,6.58
2019-04-14T04:21:18.401Z,6.50
2019-04-14T04:23:53.586Z,6.72
2019-04-14T04:26:32.202Z,6.33
2019-04-14T04:29:04.817Z,7.15
2019-04-14T04:31:39.870Z,6.97
2019-04-14T04:34:20.878Z,7.00
2019-04-14T04:36:55.892Z,7.10
2019-04-14T04:39:33.743Z,7.28
2019-04-14T04:42:04.728Z,7.40
2019-04-14T04:44:35.642Z,6.90
2019-04-14T04:47:07.649Z,7.37
2019-04-14T04:49:38.692Z,6.55
2019-04-14T04:52:11.410Z,6.60
2019-04-14T04:54:42.736Z,7.22
2019-04-14T04:57:13.874Z,7.78
2019-04-14T04:59:45.302Z,7.72
2019-04-14T05:02:16.062Z,7.25
2019-04-14T05:04:48.304Z,6.70
2019-04-14T05:07:19.215Z,6.85
2019-04-14T05:09:57.741Z,6.45
2019-04-14T05:12:30.588Z,7.12
2019-04-14T05:15:03.802Z,6.65
2019-04-14T05:17:39.010Z,6.85
2019-04-14T05:20:10.090Z,6.33
2019-04-14T05:22:41.773Z,6.17
2019-04-14T05:25:12.571Z,5.78
2019-04-14T05:27:43.563Z,6.30
2019-04-14T05:30:35.013Z,6.55
2019-04-14T05:33:05.959Z,6.28
2019-04-14T05:35:37.940Z,6.40
2019-04-14T05:38:08.846Z,6.20
2019-04-14T05:40:40.726Z,5.72
2019-04-14T05:43:11.719Z,6.03
2019-04-14T05:45:43.647Z,6.22
2019-04-14T05:48:15.990Z,5.37
2019-04-14T05:50:47.003Z,5.22
2019-04-14T05:53:17.675Z,5.62
2019-04-14T05:55:48.562Z,5.35
2019-04-14T05:58:19.247Z,6.20
2019-04-14T06:01:11.231Z,5.90
2019-04-14T06:03:43.145Z,6.10
2019-04-14T06:06:14.151Z,5.67
2019-04-14T06:08:44.839Z,5.75
2019-04-14T06:11:15.569Z,5.60
2019-04-14T06:13:46.463Z,6.15
2019-04-14T06:16:17.527Z,5.97
2019-04-14T06:18:48.285Z,5.83
2019-04-14T06:21:19.158Z,5.92
2019-04-14T06:23:49.906Z,5.42
2019-04-14T06:26:20.685Z,5.55
2019-04-14T06:28:51.548Z,6.83
2019-04-14T06:31:39.818Z,6.03
2019-04-14T06:34:18.279Z,5.72
2019-04-14T06:36:56.199Z,6.42
2019-04-14T06:39:28.564Z,6.12
2019-04-14T06:41:59.218Z,6.42
2019-04-14T06:44:29.948Z,6.35
2019-04-14T06:47:00.819Z,6.03
2019-04-14T06:49:31.487Z,6.60
2019-04-14T06:52:02.302Z,5.95
2019-04-14T06:54:33.223Z,5.90
2019-04-14T06:57:03.787Z,6.40
2019-04-14T06:59:34.563Z,5.78
2019-04-14T07:02:08.520Z,5.85
2019-04-14T07:04:38.083Z,5.55
2019-04-14T07:07:08.967Z,5.37
2019-04-14T07:09:39.638Z,5.60
2019-04-14T07:12:10.490Z,5.45
2019-04-14T07:14:41.476Z,5.55
2019-04-14T07:17:12.618Z,5.40
2019-04-14T07:19:43.497Z,5.35
2019-04-14T07:22:14.425Z,5.25
2019-04-14T07:24:45.103Z,4.83
2019-04-14T07:27:15.842Z,4.83
2019-04-14T07:30:04.696Z,5.00
2019-04-14T07:32:48.972Z,4.70
2019-04-14T07:35:37.258Z,4.80
2019-04-14T07:38:12.568Z,5.22
2019-04-14T07:43:28.021Z,4.70
2019-04-14T07:46:06.864Z,4.67
2019-04-14T07:48:39.084Z,4.72
2019-04-14T07:51:29.800Z,5.00
2019-04-14T07:54:08.249Z,4.65
2019-04-14T07:56:47.105Z,4.80
2019-04-14T07:59:19.303Z,5.20
2019-04-14T08:02:04.014Z,5.45
2019-04-14T08:04:36.648Z,5.70
2019-04-14T08:07:07.382Z,4.80
2019-04-14T08:09:38.379Z,5.12
2019-04-14T08:12:09.160Z,5.35
2019-04-14T08:14:39.886Z,4.78
2019-04-14T08:17:10.786Z,5.60
2019-04-14T08:19:41.844Z,5.47
2019-04-14T08:22:12.721Z,5.65
2019-04-14T08:24:43.672Z,5.37
2019-04-14T08:27:14.330Z,6.15
2019-04-14T08:29:45.099Z,5.90
2019-04-14T08:32:15.923Z,5.83
2019-04-14T08:34:46.597Z,5.30
2019-04-14T08:37:17.222Z,5.90
2019-04-14T08:39:48.050Z,5.70
2019-04-14T08:42:23.175Z,5.85
2019-04-14T08:45:17.463Z,5.95
2019-04-14T08:47:52.538Z,5.65
2019-04-14T08:50:41.321Z,5.45
2019-04-14T08:53:13.350Z,5.62
2019-04-14T08:55:45.665Z,5.92
2019-04-14T08:58:34.208Z,6.00
2019-04-14T09:03:58.618Z,6.80
2019-04-14T09:06:46.475Z,7.92
2019-04-14T09:09:25.086Z,10.93
2019-04-14T09:11:57.467Z,8.25
2019-04-14T09:14:28.331Z,8.90
2019-04-14T09:16:58.986Z,23.15
2019-04-14T09:19:29.872Z,8.63
2019-04-14T09:22:00.840Z,7.75
2019-04-14T09:24:31.563Z,8.10
2019-04-14T09:27:02.458Z,8.88
2019-04-14T09:29:34.496Z,10.80
2019-04-14T09:32:06.903Z,10.18
2019-04-14T09:34:37.689Z,11.80
2019-04-14T09:37:27.266Z,9.83
2019-04-14T09:39:58.075Z,10.78
2019-04-14T09:42:28.711Z,9.90
2019-04-14T09:44:59.652Z,8.60
2019-04-14T09:47:30.398Z,7.62
2019-04-14T09:50:01.120Z,7.03
2019-04-14T09:52:32.013Z,6.83
2019-04-14T09:55:02.668Z,7.00
2019-04-14T09:57:33.391Z,6.67
2019-04-14T10:00:04.283Z,7.53
2019-04-14T10:02:34.961Z,7.87
2019-04-14T10:05:06.499Z,6.90
2019-04-14T10:07:38.092Z,6.70
2019-04-14T10:10:08.853Z,7.12
2019-04-14T10:12:40.347Z,7.20
2019-04-14T10:15:11.167Z,7.28
2019-04-14T10:17:41.831Z,7.33
2019-04-14T10:20:12.547Z,6.92
2019-04-14T10:22:43.358Z,6.70
2019-04-14T10:25:14.543Z,6.67
2019-04-14T10:27:45.378Z,7.45
2019-04-14T10:30:18.092Z,7.97
2019-04-14T10:32:48.851Z,8.00
2019-04-14T10:35:19.460Z,7.78
2019-04-14T10:37:50.305Z,6.83
2019-04-14T10:40:21.158Z,7.70
2019-04-14T10:42:52.261Z,7.15
2019-04-14T10:45:23.024Z,7.53
2019-04-14T10:47:53.827Z,7.50
2019-04-14T10:50:30.794Z,7.33
2019-04-14T10:52:56.879Z,6.55
2019-04-14T10:55:27.539Z,6.47
2019-04-14T10:57:58.544Z,6.72
2019-04-14T11:00:29.365Z,6.87
2019-04-14T11:03:00.029Z,6.87
2019-04-14T11:05:32.218Z,6.80
2019-04-14T11:08:03.557Z,7.45
2019-04-14T11:10:34.319Z,7.12
2019-04-14T11:13:05.112Z,7.22
2019-04-14T11:15:36.139Z,7.90
2019-04-14T11:18:06.938Z,7.42
2019-04-14T11:20:38.828Z,8.05
2019-04-14T11:23:09.580Z,9.95
2019-04-14T11:25:40.460Z,15.83
2019-04-14T11:28:11.717Z,19.02
2019-04-14T11:30:42.511Z,21.73
2019-04-14T11:33:20.998Z,23.32
2019-04-14T11:35:53.231Z,18.92
2019-04-14T11:38:25.542Z,16.90
2019-04-14T11:40:57.777Z,11.40
2019-04-14T11:43:28.585Z,12.85
2019-04-14T11:45:59.280Z,11.63
2019-04-14T11:48:30.103Z,10.55
2019-04-14T11:51:01.008Z,20.12
2019-04-14T11:53:31.687Z,23.02
2019-04-14T11:56:02.565Z,23.30
2019-04-14T11:58:33.401Z,20.85
2019-04-14T12:01:05.499Z,18.55
2019-04-14T12:03:51.578Z,14.80
2019-04-14T12:09:17.751Z,10.85
2019-04-14T12:11:48.618Z,10.25
2019-04-14T12:14:19.314Z,9.40
2019-04-14T12:16:50.159Z,8.83
2019-04-14T12:19:20.991Z,9.03
2019-04-14T12:21:51.719Z,8.78
2019-04-14T12:24:22.615Z,8.68
2019-04-14T12:26:53.275Z,8.78
2019-04-14T12:29:24.299Z,8.43
2019-04-14T12:31:55.674Z,8.78
2019-04-14T12:34:26.350Z,8.63
2019-04-14T12:36:57.067Z,7.97
2019-04-14T12:39:28.188Z,8.23
2019-04-14T12:42:03.632Z,8.20
2019-04-14T12:44:51.519Z,8.18
2019-04-14T12:47:40.617Z,7.00
2019-04-14T12:50:19.468Z,7.22
2019-04-14T12:52:50.202Z,7.40
2019-04-14T12:55:20.694Z,6.90
2019-04-14T12:58:01.734Z,7.30
2019-04-14T13:00:43.275Z,7.33
2019-04-14T13:03:14.355Z,6.87
2019-04-14T13:05:46.383Z,7.65
2019-04-14T13:08:17.211Z,7.25
2019-04-14T13:10:48.930Z,7.95
2019-04-14T13:13:19.800Z,7.90
2019-04-14T13:15:50.607Z,7.28
2019-04-14T13:18:41.627Z,6.97
2019-04-14T13:21:12.283Z,7.28
2019-04-14T13:23:43.007Z,7.87
2019-04-14T13:26:13.909Z,7.35
2019-04-14T13:28:44.575Z,6.90
2019-04-14T13:31:15.608Z,6.67
2019-04-14T13:33:46.488Z,6.65
2019-04-14T13:36:17.154Z,6.70
2019-04-14T13:38:47.875Z,7.05
2019-04-14T13:41:18.660Z,6.85
2019-04-14T13:44:18.630Z,6.45
2019-04-14T13:46:57.466Z,6.92
2019-04-14T13:49:28.294Z,6.90
2019-04-14T13:51:58.990Z,6.37
2019-04-14T13:54:30.121Z,6.67
2019-04-14T13:57:00.902Z,6.37
2019-04-14T13:59:31.635Z,6.95
2019-04-14T14:02:02.525Z,6.90
2019-04-14T14:04:33.191Z,7.03
2019-04-14T14:07:04.314Z,7.10
2019-04-14T14:09:35.250Z,7.28
2019-04-14T14:12:20.298Z,7.67
2019-04-14T14:15:08.851Z,7.60
2019-04-14T14:17:44.059Z,8.13
2019-04-14T14:20:16.638Z,7.95
2019-04-14T14:22:58.619Z,7.80
2019-04-14T14:25:28.632Z,7.83
2019-04-14T14:27:59.450Z,8.40
2019-04-14T14:30:30.183Z,8.80
2019-04-14T14:33:01.443Z,8.00
2019-04-14T14:35:32.095Z,8.20
2019-04-14T14:38:02.829Z,8.35
2019-04-14T14:40:33.695Z,7.92
2019-04-14T14:43:04.359Z,8.18
2019-04-14T14:45:52.039Z,8.38
2019-04-14T14:48:24.254Z,7.97
2019-04-14T14:50:56.578Z,7.62
2019-04-14T14:53:27.262Z,7.92
2019-04-14T14:55:57.996Z,7.90
2019-04-14T14:58:28.889Z,7.42
2019-04-14T15:00:59.546Z,8.20
2019-04-14T15:03:30.150Z,7.60
2019-04-14T15:06:00.950Z,7.95
2019-04-14T15:08:31.636Z,8.75
2019-04-14T15:11:04.199Z,8.58
2019-04-14T15:13:35.262Z,9.00
2019-04-14T15:16:06.023Z,8.55
2019-04-14T15:18:36.746Z,8.48
2019-04-14T15:21:07.629Z,8.18
2019-04-14T15:23:38.303Z,8.48
2019-04-14T15:26:10.502Z,8.55
2019-04-14T15:28:41.300Z,8.35
2019-04-14T15:31:12.035Z,8.40
2019-04-14T15:33:42.767Z,8.53
2019-04-14T15:36:13.972Z,9.68
2019-04-14T15:38:44.675Z,9.48
2019-04-14T15:41:15.347Z,9.00
2019-04-14T15:43:46.194Z,9.55
2019-04-14T15:46:16.843Z,10.55
2019-04-14T15:48:47.761Z,9.65
2019-04-14T15:51:18.658Z,8.03
2019-04-14T15:53:49.348Z,8.33
2019-04-14T15:56:24.183Z,8.70
2019-04-14T15:59:02.914Z,9.10
2019-04-14T16:01:35.319Z,8.83
2019-04-14T16:04:13.705Z,9.10
2019-04-14T16:06:55.474Z,9.18
2019-04-14T16:09:39.735Z,9.40
2019-04-14T16:12:24.129Z,9.90
2019-04-14T16:15:02.572Z,9.78
2019-04-14T16:17:34.777Z,9.83
2019-04-14T16:20:08.073Z,9.10
2019-04-14T16:22:39.112Z,8.63
2019-04-14T16:25:10.029Z,9.28
2019-04-14T16:27:42.126Z,8.85
2019-04-14T16:30:32.729Z,8.65
2019-04-14T16:33:04.848Z,8.65
2019-04-14T16:35:37.701Z,8.63
2019-04-14T16:38:08.629Z,8.83
2019-04-14T16:46:31.278Z,8.70
2019-04-14T16:49:02.027Z,8.48
2019-04-14T16:51:43.579Z,8.35
2019-04-14T16:54:15.583Z,8.40
2019-04-14T16:56:51.108Z,8.63
2019-04-14T17:01:51.350Z,8.55
2019-04-14T17:04:22.233Z,8.70
2019-04-14T17:06:52.990Z,8.45
2019-04-14T17:09:23.733Z,8.63
2019-04-14T17:11:54.612Z,8.80
2019-04-14T17:14:26.644Z,8.35
2019-04-14T17:17:05.308Z,8.83
2019-04-14T17:19:49.833Z,9.00
2019-04-14T17:22:28.244Z,8.98
2019-04-14T17:25:03.424Z,9.00
2019-04-14T17:27:35.789Z,8.48
2019-04-14T17:30:12.667Z,8.25
2019-04-14T17:32:46.858Z,8.00
2019-04-14T17:35:18.735Z,8.00
2019-04-14T17:37:51.172Z,8.25
2019-04-14T17:40:42.237Z,8.03
2019-04-14T17:43:14.703Z,7.87
2019-04-14T17:45:46.909Z,8.30
2019-04-14T17:48:35.400Z,8.20
2019-04-14T17:51:07.551Z,8.08
2019-04-14T17:53:58.054Z,7.95
2019-04-14T17:56:45.559Z,7.12
2019-04-14T17:59:17.846Z,8.15
2019-04-14T18:02:08.772Z,8.00
2019-04-14T18:04:41.171Z,7.33
2019-04-14T18:07:16.651Z,7.85
2019-04-14T18:09:58.015Z,7.85
2019-04-14T18:12:30.215Z,7.58
2019-04-14T18:15:14.890Z,8.20
2019-04-14T18:18:04.059Z,7.22
2019-04-14T18:20:39.461Z,7.65
2019-04-14T18:23:10.195Z,7.70
2019-04-14T18:25:49.446Z,7.42
2019-04-14T18:28:22.081Z,7.55
2019-04-14T18:31:00.334Z,7.45
2019-04-14T18:33:50.959Z,6.95
2019-04-14T18:36:32.003Z,7.42
2019-04-14T18:39:22.594Z,7.58
2019-04-14T18:41:58.143Z,7.80
2019-04-14T18:44:30.443Z,7.67
2019-04-14T18:47:02.579Z,7.40
2019-04-14T18:49:34.791Z,7.90
2019-04-14T18:52:09.783Z,7.35
2019-04-14T18:54:54.685Z,7.50
2019-04-14T18:57:24.954Z,7.58
2019-04-14T18:59:57.520Z,7.55
2019-04-14T19:02:28.248Z,7.67
2019-04-14T19:04:58.899Z,7.37
2019-04-14T19:07:29.790Z,8.58
2019-04-14T19:10:00.451Z,7.95
2019-04-14T19:12:35.649Z,7.97
2019-04-14T19:15:09.072Z,7.75
2019-04-14T19:17:44.453Z,8.18
2019-04-14T19:20:17.211Z,8.18
2019-04-14T19:22:48.211Z,7.72
2019-04-14T19:25:18.845Z,8.15
2019-04-14T19:27:49.499Z,8.08
2019-04-14T19:30:39.234Z,7.92
2019-04-14T19:33:09.926Z,8.55
2019-04-14T19:35:40.647Z,8.45
2019-04-14T19:38:11.530Z,8.08
2019-04-14T19:40:42.110Z,8.15
2019-04-14T19:43:23.068Z,7.95
2019-04-14T19:45:45.639Z,8.18
2019-04-14T19:48:16.439Z,8.68
2019-04-14T19:50:47.166Z,8.03
2019-04-14T19:53:17.993Z,8.00
2019-04-14T19:55:48.663Z,8.90
2019-04-14T19:58:19.442Z,8.40
2019-04-14T20:00:50.284Z,7.97
2019-04-14T20:03:20.716Z,8.53
2019-04-14T20:05:51.431Z,8.40
2019-04-14T20:08:22.559Z,7.97
2019-04-14T20:10:53.354Z,8.38
2019-04-14T20:13:24.576Z,9.18
2019-04-14T20:16:08.874Z,8.35
2019-04-14T20:18:46.802Z,8.93
2019-04-14T20:21:34.764Z,8.88
2019-04-14T20:24:07.299Z,9.05
2019-04-14T20:26:42.745Z,9.00
2019-04-14T20:29:18.291Z,9.03
2019-04-14T20:31:50.713Z,8.28
2019-04-14T20:34:21.531Z,8.78
2019-04-14T20:36:52.287Z,8.73
2019-04-14T20:39:23.275Z,9.35
2019-04-14T20:41:54.102Z,8.98
2019-04-14T20:44:26.175Z,8.88
2019-04-14T20:46:57.056Z,8.30
2019-04-14T20:49:27.732Z,8.70
2019-04-14T20:51:58.617Z,8.58
2019-04-14T20:54:29.559Z,8.43
2019-04-14T20:57:00.231Z,8.75
2019-04-14T20:59:30.955Z,9.20
2019-04-14T21:02:09.387Z,8.68
2019-04-14T21:04:51.160Z,8.63
2019-04-14T21:07:40.147Z,8.53
2019-04-14T21:10:12.351Z,9.00
2019-04-14T21:12:47.900Z,8.83
2019-04-14T21:15:36.318Z,8.60
2019-04-14T21:18:11.426Z,8.85
2019-04-14T21:21:02.078Z,9.48
2019-04-14T21:23:34.991Z,9.28
2019-04-14T21:26:10.132Z,9.18
2019-04-14T21:28:59.123Z,9.98
2019-04-14T21:31:31.335Z,8.85
2019-04-14T21:34:03.655Z,9.35
2019-04-14T21:36:38.714Z,9.28
2019-04-14T21:39:20.606Z,9.68
2019-04-14T21:41:54.499Z,9.10
2019-04-14T21:44:25.359Z,9.18
2019-04-14T21:46:56.671Z,9.45
2019-04-14T21:49:27.430Z,8.50
2019-04-14T21:52:02.757Z,8.93
2019-04-14T21:54:33.508Z,9.73
2019-04-14T21:57:14.730Z,8.70
2019-04-14T22:00:03.353Z,8.78
2019-04-14T22:02:48.085Z,9.65
2019-04-14T22:05:35.571Z,9.30
2019-04-14T22:08:10.630Z,9.73
2019-04-14T22:10:45.906Z,9.23
2019-04-14T22:13:17.133Z,8.68
2019-04-14T22:15:47.890Z,9.55
2019-04-14T22:18:18.906Z,8.88
2019-04-14T22:20:49.815Z,9.43
2019-04-14T22:23:20.472Z,9.35
2019-04-14T22:25:51.566Z,9.58
2019-04-14T22:28:22.398Z,9.95
2019-04-14T22:30:53.038Z,9.85
2019-04-14T22:33:23.666Z,9.68
2019-04-14T22:35:54.479Z,9.23
2019-04-14T22:38:25.142Z,9.68
2019-04-14T22:40:55.863Z,8.98
2019-04-14T22:43:26.750Z,9.68
2019-04-14T22:45:57.406Z,9.63
2019-04-14T22:48:28.458Z,9.55
2019-04-14T22:50:59.451Z,9.43
2019-04-14T22:53:30.123Z,9.43
2019-04-14T22:56:00.831Z,9.38
2019-04-14T22:58:31.634Z,9.60
2019-04-14T23:01:03.870Z,9.85
2019-04-14T23:03:36.168Z,9.33
2019-04-14T23:06:08.433Z,9.38
2019-04-14T23:08:49.863Z,9.05
2019-04-14T23:11:24.945Z,9.75
2019-04-14T23:14:13.938Z,9.85
2019-04-14T23:16:58.028Z,10.05
2019-04-14T23:19:42.854Z,9.48
2019-04-14T23:22:33.284Z,9.65
2019-04-14T23:25:04.179Z,9.78
2019-04-14T23:27:35.246Z,9.85
2019-04-14T23:30:07.954Z,9.68
2019-04-14T23:32:38.632Z,9.60
2019-04-14T23:35:10.074Z,10.00
2019-04-14T23:37:41.055Z,9.70
2019-04-14T23:40:11.810Z,9.38
2019-04-14T23:42:43.232Z,10.28
2019-04-14T23:45:14.147Z,9.80
2019-04-14T23:47:44.803Z,10.10
2019-04-14T23:50:17.135Z,10.32
2019-04-14T23:52:48.030Z,10.72
2019-04-14T23:55:18.943Z,10.20
2019-04-14T23:57:49.598Z,9.33
